GMFF/FEZ METAR and TAF weather

Enter ICAO airport designator
Station Type Date Time Source
GMFF METAR 2019/10/16 20:00 UTC NOAA

GMFF 162000Z 26008KT CAVOK 18/08 Q1020 NOSIG


Station Type Date Time Source
GMFF Decoded METAR 2019/10/16 20:00 UTC NOAA

Fes-Sais, Morocco (GMFF) 33-56N 004-59W 579M
Oct 16, 2019 - 04:00 PM EDT / 2019.10.16 2000 UTC
Wind: from the W (260 degrees) at 9 MPH (8 KT):0
Visibility: greater than 7 mile(s):0
Temperature: 64 F (18 C)
Dew Point: 46 F (8 C)
Relative Humidity: 51%
Pressure (altimeter): 30.12 in. Hg (1020 hPa)
ob: GMFF 162000Z 26008KT CAVOK 18/08 Q1020 NOSIG
cycle: 20

Station Type Date Time Source
GMFF TAF 2019/10/16 18:21 UTC NOAA

TAF TAF GMFF 161700Z 1618/1724 32010KT CAVOK
BECMG 1620/1622 22006KT
BECMG 1710/1714 34012KT

Example: see airport list